Time;durP1;ratioP1;P1;durP2;ratioP2;P2;SDS_P1;SDS_P2;PMS_P1;PMS_P2;Temp;Humidity;BMP_temperature;BMP_pressure;BME280_temperature;BME280_humidity;BME280_pressure;Samples;Min_cycle;Max_cycle;Signal;HPM_P1;HPM_P2
2022/02/23 00:02:18;;;;;;;6.47;2.03;;;;;;;;;;5052959;28;20087;-61
2022/02/23 00:04:44;;;;;;;6.03;1.50;;;;;;;;;;5052439;28;20037;-60
2022/02/23 00:07:10;;;;;;;6.22;2.00;;;;;;;;;;5071132;28;20043;-60
2022/02/23 00:09:36;;;;;;;6.25;1.98;;;;;;;;;;5072608;28;20514;-60
2022/02/23 00:12:02;;;;;;;5.75;2.10;;;;;;;;;;5072934;28;20013;-60
2022/02/23 00:14:28;;;;;;;6.20;1.58;;;;;;;;;;5072662;28;20013;-61
2022/02/23 00:16:54;;;;;;;5.60;1.63;;;;;;;;;;5072356;28;20131;-61
2022/02/23 00:19:20;;;;;;;18.30;2.60;;;;;;;;;;5072744;28;20027;-61
2022/02/23 00:21:46;;;;;;;9.93;2.40;;;;;;;;;;5072704;28;20017;-62
2022/02/23 00:24:12;;;;;;;12.32;2.00;;;;;;;;;;5072444;28;20028;-61
2022/02/23 00:26:38;;;;;;;14.55;3.05;;;;;;;;;;5058958;28;20104;-63
2022/02/23 00:29:05;;;;;;;5.45;1.90;;;;;;;;;;5052703;28;20025;-62
2022/02/23 00:31:31;;;;;;;6.75;1.85;;;;;;;;;;5052761;28;20207;-61
2022/02/23 00:33:57;;;;;;;4.78;1.83;;;;;;;;;;5052741;28;20048;-61
2022/02/23 00:36:23;;;;;;;4.68;1.52;;;;;;;;;;5052617;28;20472;-61
2022/02/23 00:38:49;;;;;;;5.03;1.90;;;;;;;;;;5052454;28;20040;-61
2022/02/23 00:41:15;;;;;;;5.60;1.90;;;;;;;;;;5052647;28;20036;-61
2022/02/23 00:43:41;;;;;;;5.43;1.60;;;;;;;;;;5052591;28;20078;-62
2022/02/23 00:46:07;;;;;;;5.72;1.92;;;;;;;;;;5052514;28;20028;-62
2022/02/23 00:48:33;;;;;;;7.05;2.15;;;;;;;;;;5052418;28;20052;-61
2022/02/23 00:50:59;;;;;;;4.60;1.65;;;;;;;;;;5052133;28;20024;-62
2022/02/23 00:53:25;;;;;;;6.50;1.60;;;;;;;;;;5052451;28;20025;-61
2022/02/23 00:55:51;;;;;;;5.72;1.85;;;;;;;;;;5052397;28;20056;-61
2022/02/23 00:58:17;;;;;;;6.22;1.88;;;;;;;;;;5052217;28;20084;-61
2022/02/23 01:00:44;;;;;;;5.20;1.73;;;;;;;;;;5052050;28;20029;-61
2022/02/23 01:03:10;;;;;;;4.85;1.50;;;;;;;;;;5052130;28;20029;-62
2022/02/23 01:05:36;;;;;;;5.15;1.50;;;;;;;;;;5051995;28;20056;-61
2022/02/23 01:08:02;;;;;;;6.03;1.50;;;;;;;;;;5051963;28;20096;-62
2022/02/23 01:10:28;;;;;;;4.70;1.38;;;;;;;;;;5052135;28;20070;-61
2022/02/23 01:12:54;;;;;;;4.22;1.30;;;;;;;;;;5052336;28;20065;-62
2022/02/23 01:15:20;;;;;;;5.65;1.80;;;;;;;;;;5051742;28;20032;-61
2022/02/23 01:17:46;;;;;;;4.53;1.42;;;;;;;;;;5051752;28;20025;-61
2022/02/23 01:20:12;;;;;;;6.50;2.10;;;;;;;;;;5051596;28;20031;-61
2022/02/23 01:22:38;;;;;;;5.22;2.03;;;;;;;;;;5051631;28;20036;-61
2022/02/23 01:25:05;;;;;;;4.38;1.58;;;;;;;;;;5051521;28;20464;-61
2022/02/23 01:27:31;;;;;;;11.40;1.85;;;;;;;;;;5051989;28;20025;-61
2022/02/23 01:29:58;;;;;;;5.93;1.73;;;;;;;;;;5051866;28;20471;-61
2022/02/23 01:32:24;;;;;;;9.10;2.03;;;;;;;;;;5051710;28;20715;-61
2022/02/23 01:34:50;;;;;;;7.35;1.98;;;;;;;;;;5051416;28;20028;-61
2022/02/23 01:37:16;;;;;;;4.45;1.50;;;;;;;;;;5051502;28;20029;-61
2022/02/23 01:39:42;;;;;;;4.35;1.80;;;;;;;;;;5051542;28;20025;-61
2022/02/23 01:42:11;;;;;;;7.65;1.73;;;;;;;;;;5051561;28;20071;-61
2022/02/23 01:44:37;;;;;;;4.75;1.75;;;;;;;;;;5051306;28;20035;-60
2022/02/23 01:47:03;;;;;;;3.70;1.55;;;;;;;;;;5051686;28;20045;-61
2022/02/23 01:49:29;;;;;;;4.90;1.90;;;;;;;;;;5051532;28;20487;-61
2022/02/23 01:51:55;;;;;;;6.70;1.77;;;;;;;;;;5051495;28;20029;-61
2022/02/23 01:54:21;;;;;;;5.93;2.08;;;;;;;;;;5051468;28;20037;-60
2022/02/23 01:56:47;;;;;;;4.25;1.52;;;;;;;;;;5051618;28;20371;-61
2022/02/23 01:59:14;;;;;;;5.70;1.80;;;;;;;;;;5051576;28;20025;-61
2022/02/23 02:01:40;;;;;;;4.38;1.50;;;;;;;;;;5051557;28;20100;-61
2022/02/23 02:04:06;;;;;;;6.03;1.70;;;;;;;;;;5051337;28;20530;-61
2022/02/23 02:06:32;;;;;;;4.68;1.90;;;;;;;;;;5052774;28;20021;-62
2022/02/23 02:08:58;;;;;;;4.25;1.60;;;;;;;;;;5054880;28;20032;-62
2022/02/23 02:11:24;;;;;;;3.60;1.38;;;;;;;;;;5054762;28;20025;-62
2022/02/23 02:13:50;;;;;;;3.70;1.45;;;;;;;;;;5055224;28;20021;-62
2022/02/23 02:16:16;;;;;;;3.55;1.48;;;;;;;;;;5054783;28;20077;-61
2022/02/23 02:18:42;;;;;;;3.47;1.48;;;;;;;;;;5055048;28;20033;-62
2022/02/23 02:21:08;;;;;;;4.50;1.70;;;;;;;;;;5055329;28;20028;-62
2022/02/23 02:23:34;;;;;;;3.78;1.40;;;;;;;;;;5055014;28;20040;-62
2022/02/23 02:26:00;;;;;;;5.60;1.75;;;;;;;;;;5054756;28;20033;-61
2022/02/23 02:28:26;;;;;;;5.90;1.42;;;;;;;;;;5054749;28;20574;-61
2022/02/23 02:30:52;;;;;;;4.25;1.50;;;;;;;;;;5054697;28;20017;-61
2022/02/23 02:33:19;;;;;;;6.80;1.70;;;;;;;;;;5054887;28;20053;-61
2022/02/23 02:35:45;;;;;;;7.07;2.10;;;;;;;;;;5054887;28;20116;-61
2022/02/23 02:38:12;;;;;;;5.25;1.58;;;;;;;;;;5036772;28;20506;-61
2022/02/23 02:40:38;;;;;;;3.72;1.30;;;;;;;;;;5054754;28;20028;-61
2022/02/23 02:43:07;;;;;;;7.55;2.03;;;;;;;;;;5054826;28;20029;-62
2022/02/23 02:45:33;;;;;;;4.85;1.60;;;;;;;;;;5054788;28;20112;-61
2022/02/23 02:47:59;;;;;;;4.72;1.70;;;;;;;;;;5054674;28;20801;-62
2022/02/23 02:50:25;;;;;;;6.75;2.13;;;;;;;;;;5054633;28;20044;-61
2022/02/23 02:52:52;;;;;;;4.25;1.58;;;;;;;;;;5054592;28;20104;-61
2022/02/23 02:55:18;;;;;;;4.80;1.65;;;;;;;;;;5054542;28;20029;-61
2022/02/23 02:57:44;;;;;;;4.70;1.63;;;;;;;;;;5054403;28;20093;-61
2022/02/23 03:00:10;;;;;;;4.57;1.75;;;;;;;;;;5054284;28;20056;-61
2022/02/23 03:02:36;;;;;;;8.20;1.77;;;;;;;;;;5054115;28;20514;-62
2022/02/23 03:05:03;;;;;;;5.70;2.00;;;;;;;;;;5054344;28;20036;-62
2022/02/23 03:07:29;;;;;;;6.50;1.63;;;;;;;;;;5054614;28;20021;-62
2022/02/23 03:09:55;;;;;;;8.02;1.85;;;;;;;;;;5054292;28;20608;-61
2022/02/23 03:12:21;;;;;;;3.85;1.45;;;;;;;;;;5054337;28;20123;-61
2022/02/23 03:14:47;;;;;;;4.43;1.52;;;;;;;;;;5054075;28;20028;-61
2022/02/23 03:17:13;;;;;;;4.05;1.60;;;;;;;;;;5053054;28;20053;-61
2022/02/23 03:19:39;;;;;;;5.80;1.90;;;;;;;;;;5053531;28;20025;-61
2022/02/23 03:22:06;;;;;;;5.82;1.65;;;;;;;;;;5036088;28;20022;-61
2022/02/23 03:24:32;;;;;;;5.93;1.95;;;;;;;;;;5035984;28;20091;-61
2022/02/23 03:26:58;;;;;;;7.97;2.25;;;;;;;;;;5053812;28;20020;-61
2022/02/23 03:29:24;;;;;;;3.95;1.33;;;;;;;;;;5053895;28;20021;-61
2022/02/23 03:31:50;;;;;;;6.20;1.95;;;;;;;;;;5053950;28;20025;-60
2022/02/23 03:34:16;;;;;;;6.00;1.73;;;;;;;;;;5053873;28;20052;-61
2022/02/23 03:36:42;;;;;;;4.78;1.80;;;;;;;;;;5053685;28;20390;-62
2022/02/23 03:39:08;;;;;;;6.57;2.05;;;;;;;;;;5053692;28;20054;-61
2022/02/23 03:41:34;;;;;;;5.50;1.70;;;;;;;;;;5053817;28;20021;-61
2022/02/23 03:44:00;;;;;;;5.10;1.63;;;;;;;;;;5053636;28;20468;-61
2022/02/23 03:46:26;;;;;;;5.65;1.88;;;;;;;;;;5053580;28;20420;-60
2022/02/23 03:48:52;;;;;;;4.78;1.70;;;;;;;;;;5053551;28;20486;-61
2022/02/23 03:51:18;;;;;;;4.65;1.67;;;;;;;;;;5053393;28;20025;-61
2022/02/23 03:53:44;;;;;;;5.03;1.70;;;;;;;;;;5053557;28;20055;-62
2022/02/23 03:56:38;;;;;;;5.45;1.80;;;;;;;;;;5053484;28;20058;-61
2022/02/23 03:58:57;;;;;;;6.00;1.95;;;;;;;;;;5053109;28;20033;-61
2022/02/23 04:01:23;;;;;;;5.15;1.55;;;;;;;;;;5053349;28;20079;-62
2022/02/23 04:03:49;;;;;;;5.95;1.42;;;;;;;;;;5034805;28;20021;-61
2022/02/23 04:06:15;;;;;;;4.82;1.40;;;;;;;;;;5053166;28;20029;-61
2022/02/23 04:08:41;;;;;;;5.93;1.75;;;;;;;;;;5053027;28;20013;-61
2022/02/23 04:11:07;;;;;;;6.03;1.40;;;;;;;;;;5053001;28;20029;-62
2022/02/23 04:13:34;;;;;;;4.65;1.60;;;;;;;;;;5053170;28;20031;-61
2022/02/23 04:16:00;;;;;;;5.20;1.50;;;;;;;;;;5052814;28;20187;-60
2022/02/23 04:18:26;;;;;;;4.38;1.65;;;;;;;;;;5052957;28;20266;-62
2022/02/23 04:20:52;;;;;;;4.38;1.25;;;;;;;;;;5052936;28;20017;-62
2022/02/23 04:23:19;;;;;;;4.63;1.65;;;;;;;;;;5052865;28;20443;-62
2022/02/23 04:25:45;;;;;;;4.95;1.55;;;;;;;;;;5052815;28;20024;-61
2022/02/23 04:28:11;;;;;;;5.57;1.75;;;;;;;;;;5052800;28;20028;-61
2022/02/23 04:30:37;;;;;;;4.40;1.65;;;;;;;;;;5052217;28;20059;-61
2022/02/23 04:33:03;;;;;;;6.07;1.60;;;;;;;;;;5052887;28;20032;-62
2022/02/23 04:35:29;;;;;;;12.90;1.60;;;;;;;;;;5052747;28;20670;-61
2022/02/23 04:37:55;;;;;;;6.45;1.65;;;;;;;;;;5052758;28;20024;-62
2022/02/23 04:40:21;;;;;;;6.15;1.90;;;;;;;;;;5052545;28;20023;-60
2022/02/23 04:42:48;;;;;;;4.40;1.23;;;;;;;;;;5052694;28;20029;-61
2022/02/23 04:45:14;;;;;;;5.93;1.63;;;;;;;;;;5034559;28;20040;-61
2022/02/23 04:47:40;;;;;;;7.05;2.30;;;;;;;;;;5052551;28;20108;-62
2022/02/23 04:50:07;;;;;;;5.97;1.70;;;;;;;;;;5052499;28;20049;-62
2022/02/23 04:52:33;;;;;;;5.15;1.83;;;;;;;;;;5052205;28;20028;-62
2022/02/23 04:54:59;;;;;;;5.45;1.65;;;;;;;;;;5052304;28;20017;-62
2022/02/23 04:57:25;;;;;;;6.55;1.92;;;;;;;;;;5034755;28;20032;-61
2022/02/23 04:59:51;;;;;;;9.10;1.65;;;;;;;;;;5052150;28;20040;-61
2022/02/23 05:02:17;;;;;;;4.28;1.63;;;;;;;;;;5051821;28;20025;-61
2022/02/23 05:04:43;;;;;;;8.98;1.90;;;;;;;;;;5051885;28;20028;-61
2022/02/23 05:07:10;;;;;;;6.00;1.85;;;;;;;;;;5052145;28;20070;-62
2022/02/23 05:09:37;;;;;;;6.28;1.83;;;;;;;;;;5052128;28;20111;-62
2022/02/23 05:12:04;;;;;;;6.32;1.83;;;;;;;;;;5052049;28;20028;-61
2022/02/23 05:14:30;;;;;;;5.28;2.00;;;;;;;;;;5051602;28;20024;-61
2022/02/23 05:16:56;;;;;;;4.25;1.73;;;;;;;;;;5051136;28;20048;-61
2022/02/23 05:19:22;;;;;;;5.22;1.77;;;;;;;;;;5051360;28;20381;-60
2022/02/23 05:21:48;;;;;;;6.15;1.90;;;;;;;;;;5051651;28;20013;-61
2022/02/23 05:24:14;;;;;;;8.15;1.80;;;;;;;;;;5051533;28;20064;-61
2022/02/23 05:26:40;;;;;;;7.10;1.70;;;;;;;;;;5051183;28;20526;-61
2022/02/23 05:29:06;;;;;;;6.22;1.88;;;;;;;;;;5051403;28;20025;-61
2022/02/23 05:31:32;;;;;;;6.10;1.90;;;;;;;;;;5051351;28;20029;-61
2022/02/23 05:33:58;;;;;;;5.35;1.50;;;;;;;;;;5051360;28;20021;-60
2022/02/23 05:36:24;;;;;;;4.50;1.20;;;;;;;;;;5050957;28;20024;-61
2022/02/23 05:38:51;;;;;;;4.93;1.45;;;;;;;;;;5051035;28;20028;-61
2022/02/23 05:41:17;;;;;;;3.60;1.38;;;;;;;;;;5050281;28;20021;-61
2022/02/23 05:43:43;;;;;;;5.25;1.45;;;;;;;;;;5051251;28;20032;-61
2022/02/23 05:46:09;;;;;;;5.32;1.30;;;;;;;;;;5051108;28;20096;-61
2022/02/23 05:48:35;;;;;;;5.53;1.50;;;;;;;;;;5050937;28;20071;-60
2022/02/23 05:51:01;;;;;;;5.40;1.58;;;;;;;;;;5050733;28;20034;-61
2022/02/23 05:53:28;;;;;;;5.15;1.70;;;;;;;;;;5051048;28;20025;-60
2022/02/23 05:55:54;;;;;;;4.68;1.40;;;;;;;;;;5051140;28;20522;-62
2022/02/23 05:58:20;;;;;;;9.90;1.63;;;;;;;;;;5051179;28;20028;-62
2022/02/23 06:00:46;;;;;;;6.88;1.30;;;;;;;;;;5050791;28;20029;-62
2022/02/23 06:03:12;;;;;;;4.13;1.40;;;;;;;;;;5051191;28;20039;-62
2022/02/23 06:05:38;;;;;;;4.70;1.30;;;;;;;;;;5051150;28;20029;-62
2022/02/23 06:08:04;;;;;;;5.05;1.30;;;;;;;;;;5051054;28;20062;-62
2022/02/23 06:10:30;;;;;;;3.28;1.13;;;;;;;;;;5050895;28;20032;-62
2022/02/23 06:12:56;;;;;;;6.38;1.02;;;;;;;;;;5049944;28;20123;-61
2022/02/23 06:15:22;;;;;;;4.57;1.50;;;;;;;;;;5050759;28;20396;-62
2022/02/23 06:17:48;;;;;;;5.72;1.35;;;;;;;;;;5050940;28;20032;-62
2022/02/23 06:20:14;;;;;;;3.80;1.58;;;;;;;;;;5051029;28;20483;-62
2022/02/23 06:22:41;;;;;;;6.18;1.33;;;;;;;;;;5051111;28;20032;-60
2022/02/23 06:25:07;;;;;;;3.65;1.10;;;;;;;;;;5050930;28;20087;-61
2022/02/23 06:27:33;;;;;;;4.78;1.35;;;;;;;;;;5051354;28;20025;-61
2022/02/23 06:29:59;;;;;;;4.32;1.13;;;;;;;;;;5051171;28;20060;-61
2022/02/23 06:32:25;;;;;;;4.72;1.05;;;;;;;;;;5050674;28;20045;-61
2022/02/23 06:34:51;;;;;;;3.38;1.25;;;;;;;;;;5050803;28;20032;-63
2022/02/23 06:37:17;;;;;;;3.80;1.48;;;;;;;;;;5050981;28;20029;-62
2022/02/23 06:39:43;;;;;;;4.10;1.20;;;;;;;;;;5051201;28;20019;-62
2022/02/23 06:42:10;;;;;;;4.30;1.10;;;;;;;;;;5051097;28;20463;-62
2022/02/23 06:44:36;;;;;;;5.10;1.20;;;;;;;;;;5050832;28;20044;-61
2022/02/23 06:47:02;;;;;;;5.25;0.93;;;;;;;;;;5050828;28;20104;-61
2022/02/23 06:49:30;;;;;;;3.05;1.13;;;;;;;;;;5032839;28;20049;-62
2022/02/23 06:52:00;;;;;;;4.07;1.00;;;;;;;;;;5051157;28;20602;-62
2022/02/23 06:54:27;;;;;;;2.90;1.02;;;;;;;;;;5054241;28;20111;-62
2022/02/23 06:56:53;;;;;;;1.95;0.80;;;;;;;;;;5053931;28;20025;-62
2022/02/23 06:59:19;;;;;;;5.18;1.30;;;;;;;;;;5054009;28;20064;-62
2022/02/23 07:01:45;;;;;;;4.85;1.20;;;;;;;;;;5054050;28;20513;-62
2022/02/23 07:04:11;;;;;;;3.92;1.00;;;;;;;;;;5054140;28;20109;-62
2022/02/23 07:06:37;;;;;;;10.95;1.60;;;;;;;;;;5054295;28;20025;-62
2022/02/23 07:09:04;;;;;;;3.28;1.05;;;;;;;;;;5054187;28;20021;-62
2022/02/23 07:11:30;;;;;;;7.75;1.20;;;;;;;;;;5054436;28;20027;-62
2022/02/23 07:13:56;;;;;;;4.15;0.98;;;;;;;;;;5036113;28;20021;-62
2022/02/23 07:16:26;;;;;;;7.22;1.15;;;;;;;;;;5054033;28;20041;-62
2022/02/23 07:18:52;;;;;;;3.88;1.20;;;;;;;;;;5054024;28;20028;-62
2022/02/23 07:21:19;;;;;;;5.40;1.45;;;;;;;;;;5053678;28;20028;-60
2022/02/23 07:23:46;;;;;;;3.70;1.00;;;;;;;;;;5053750;28;20067;-63
2022/02/23 07:26:14;;;;;;;2.65;0.90;;;;;;;;;;5053912;28;20029;-62
2022/02/23 07:28:40;;;;;;;7.90;1.35;;;;;;;;;;5053620;28;20127;-62
2022/02/23 07:31:07;;;;;;;7.63;1.38;;;;;;;;;;5053509;28;20494;-62
2022/02/23 07:33:35;;;;;;;15.52;1.80;;;;;;;;;;5053736;28;20028;-61
2022/02/23 07:36:02;;;;;;;5.93;1.45;;;;;;;;;;5043464;28;20527;-62
2022/02/23 07:38:28;;;;;;;6.32;1.55;;;;;;;;;;5033659;28;20034;-62
2022/02/23 07:40:54;;;;;;;4.50;1.40;;;;;;;;;;5033495;28;20067;-62
2022/02/23 07:43:20;;;;;;;5.45;1.33;;;;;;;;;;5033517;28;20100;-61
2022/02/23 07:45:46;;;;;;;7.70;1.38;;;;;;;;;;5033813;28;20037;-61
2022/02/23 07:48:13;;;;;;;7.40;1.48;;;;;;;;;;5034154;28;20025;-62
2022/02/23 07:50:39;;;;;;;4.57;1.20;;;;;;;;;;5033475;28;20021;-62
2022/02/23 07:53:05;;;;;;;4.18;1.40;;;;;;;;;;5050604;28;20021;-61
2022/02/23 07:55:31;;;;;;;2.88;1.00;;;;;;;;;;5053430;28;20033;-62
2022/02/23 07:57:58;;;;;;;3.80;1.10;;;;;;;;;;5053385;28;20039;-62
2022/02/23 08:00:24;;;;;;;8.30;1.55;;;;;;;;;;5053046;28;20029;-62
2022/02/23 08:02:51;;;;;;;7.47;1.67;;;;;;;;;;5053367;28;20377;-62
2022/02/23 08:05:17;;;;;;;4.63;1.27;;;;;;;;;;5052324;28;20075;-61
2022/02/23 08:07:43;;;;;;;2.92;1.05;;;;;;;;;;5053270;28;20092;-62
2022/02/23 08:10:09;;;;;;;5.82;1.23;;;;;;;;;;5053092;28;20028;-61
2022/02/23 08:12:35;;;;;;;9.32;1.10;;;;;;;;;;5052992;28;20020;-62
2022/02/23 08:19:31;;;;;;;4.45;1.27;;;;;;;;;;5053013;28;21121;-61
2022/02/23 08:20:33;;;;;;;3.50;1.15;;;;;;;;;;5012978;28;20037;-62
2022/02/23 08:22:59;;;;;;;12.82;1.55;;;;;;;;;;5011767;28;20132;-62
2022/02/23 08:25:26;;;;;;;5.45;1.20;;;;;;;;;;5013090;28;20044;-62
2022/02/23 08:27:52;;;;;;;5.30;1.33;;;;;;;;;;5013078;28;20076;-62
2022/02/23 08:30:18;;;;;;;4.28;1.00;;;;;;;;;;5012795;28;20025;-62
2022/02/23 08:32:45;;;;;;;6.95;1.45;;;;;;;;;;5012922;28;20057;-62
2022/02/23 08:35:11;;;;;;;4.20;1.35;;;;;;;;;;5012740;28;20022;-62
2022/02/23 08:37:38;;;;;;;2.85;1.10;;;;;;;;;;5012866;28;20500;-62
2022/02/23 08:40:04;;;;;;;4.90;1.33;;;;;;;;;;5012874;28;20037;-61
2022/02/23 08:42:31;;;;;;;13.25;1.70;;;;;;;;;;5013064;28;20029;-62
2022/02/23 08:44:57;;;;;;;2.53;1.17;;;;;;;;;;5012836;28;20037;-61
2022/02/23 08:47:25;;;;;;;3.50;1.10;;;;;;;;;;5012841;28;20114;-62
2022/02/23 08:49:52;;;;;;;6.30;1.25;;;;;;;;;;5011396;28;20026;-61
2022/02/23 08:52:18;;;;;;;4.70;1.25;;;;;;;;;;5012564;28;20388;-61
2022/02/23 08:54:44;;;;;;;10.90;1.35;;;;;;;;;;5012633;28;20028;-61
2022/02/23 08:57:10;;;;;;;10.00;1.60;;;;;;;;;;5012823;28;20101;-61
2022/02/23 08:59:37;;;;;;;7.32;1.17;;;;;;;;;;5012553;28;20022;-61
2022/02/23 09:02:03;;;;;;;5.53;1.48;;;;;;;;;;5011394;28;20033;-61
2022/02/23 09:04:29;;;;;;;5.38;0.93;;;;;;;;;;5011604;28;20121;-61
2022/02/23 09:06:55;;;;;;;4.13;1.15;;;;;;;;;;5011517;28;20105;-61
2022/02/23 09:09:22;;;;;;;4.57;1.30;;;;;;;;;;5012435;28;20022;-61
2022/02/23 09:11:48;;;;;;;4.28;0.95;;;;;;;;;;5012182;28;20064;-61
2022/02/23 09:14:14;;;;;;;6.10;1.20;;;;;;;;;;5012367;28;20036;-62
2022/02/23 09:16:41;;;;;;;4.00;1.20;;;;;;;;;;5036735;28;20091;-61
2022/02/23 09:19:07;;;;;;;3.65;0.80;;;;;;;;;;5051940;28;20082;-61
2022/02/23 09:21:33;;;;;;;5.07;1.35;;;;;;;;;;5052007;28;20025;-61
2022/02/23 09:24:00;;;;;;;2.70;0.90;;;;;;;;;;5051877;28;20025;-62
2022/02/23 09:26:28;;;;;;;3.15;1.00;;;;;;;;;;5052137;28;20029;-62
2022/02/23 09:28:54;;;;;;;4.22;1.00;;;;;;;;;;5051593;28;20017;-61
2022/02/23 09:31:20;;;;;;;4.43;1.17;;;;;;;;;;5051759;28;20025;-62
2022/02/23 09:33:51;;;;;;;2.80;1.30;;;;;;;;;;5051742;28;20384;-62
2022/02/23 09:36:17;;;;;;;4.72;0.98;;;;;;;;;;5051928;28;20025;-61
2022/02/23 09:38:44;;;;;;;3.20;1.00;;;;;;;;;;5051679;28;20028;-62
2022/02/23 09:41:14;;;;;;;5.65;1.00;;;;;;;;;;5051537;28;20464;-62
2022/02/23 09:43:40;;;;;;;2.25;0.82;;;;;;;;;;5033641;28;20037;-62
2022/02/23 09:46:08;;;;;;;3.08;1.10;;;;;;;;;;5051459;28;20021;-61
2022/02/23 09:48:35;;;;;;;3.08;0.95;;;;;;;;;;5051652;28;20464;-62
2022/02/23 09:51:02;;;;;;;3.22;0.80;;;;;;;;;;5051670;28;20060;-62
2022/02/23 09:53:28;;;;;;;2.03;0.82;;;;;;;;;;5051740;28;20463;-62
2022/02/23 09:55:59;;;;;;;3.70;1.00;;;;;;;;;;5051610;28;20029;-61
2022/02/23 09:58:26;;;;;;;4.40;0.90;;;;;;;;;;5048993;28;20028;-61
2022/02/23 10:00:54;;;;;;;3.63;1.05;;;;;;;;;;5050784;28;20048;-60
2022/02/23 10:03:21;;;;;;;7.30;1.55;;;;;;;;;;5051277;28;20093;-61
2022/02/23 10:05:47;;;;;;;3.90;1.23;;;;;;;;;;5048124;28;20037;-61
2022/02/23 10:08:14;;;;;;;2.55;0.73;;;;;;;;;;5051220;28;20028;-61
2022/02/23 10:10:41;;;;;;;1.85;0.73;;;;;;;;;;5050968;28;20029;-61
2022/02/23 10:13:09;;;;;;;2.92;1.20;;;;;;;;;;5050444;28;20025;-61
2022/02/23 10:15:39;;;;;;;3.05;1.20;;;;;;;;;;5050805;28;20403;-62
2022/02/23 10:18:07;;;;;;;2.13;0.80;;;;;;;;;;5051119;28;20028;-62
2022/02/23 10:20:35;;;;;;;3.45;0.95;;;;;;;;;;5047794;28;20072;-62
2022/02/23 10:23:07;;;;;;;1.95;0.75;;;;;;;;;;5042208;28;20021;-60
2022/02/23 10:25:41;;;;;;;3.55;1.30;;;;;;;;;;5051248;28;20040;-60
2022/02/23 10:28:10;;;;;;;3.85;0.90;;;;;;;;;;5033772;28;20021;-60
2022/02/23 10:30:59;;;;;;;2.85;1.08;;;;;;;;;;5017177;28;20567;-61
2022/02/23 10:33:26;;;;;;;4.53;1.40;;;;;;;;;;5034905;28;20097;-61
2022/02/23 10:35:57;;;;;;;2.92;1.00;;;;;;;;;;5017196;28;20067;-61
2022/02/23 10:38:24;;;;;;;2.47;0.85;;;;;;;;;;5038952;28;20412;-62
2022/02/23 10:40:51;;;;;;;2.58;0.85;;;;;;;;;;5054682;28;20044;-62
2022/02/23 10:43:29;;;;;;;3.47;0.80;;;;;;;;;;5036793;28;20506;-61
2022/02/23 10:46:12;;;;;;;2.53;0.80;;;;;;;;;;5054734;28;20040;-61
2022/02/23 10:48:38;;;;;;;2.40;0.90;;;;;;;;;;5054687;28;20025;-61
2022/02/23 10:51:05;;;;;;;2.47;0.90;;;;;;;;;;5036619;28;20337;-61
2022/02/23 10:53:32;;;;;;;2.28;0.80;;;;;;;;;;5036509;28;20588;-61
2022/02/23 10:55:59;;;;;;;3.10;0.98;;;;;;;;;;5054734;28;20029;-61
2022/02/23 10:58:26;;;;;;;6.35;1.17;;;;;;;;;;5054507;28;20100;-61
2022/02/23 11:00:54;;;;;;;4.63;1.17;;;;;;;;;;5054580;28;20021;-61
2022/02/23 11:03:20;;;;;;;3.28;1.00;;;;;;;;;;5054275;28;20029;-61
2022/02/23 11:05:48;;;;;;;3.13;0.90;;;;;;;;;;5054197;28;20029;-61
2022/02/23 11:08:15;;;;;;;4.72;0.90;;;;;;;;;;5054157;28;20032;-61
2022/02/23 11:10:45;;;;;;;4.53;0.85;;;;;;;;;;5054238;28;20025;-61
2022/02/23 11:13:12;;;;;;;2.70;0.90;;;;;;;;;;5054274;28;20044;-60
2022/02/23 11:15:42;;;;;;;5.00;0.98;;;;;;;;;;5054230;28;20033;-60
2022/02/23 11:18:09;;;;;;;5.30;0.95;;;;;;;;;;5040548;28;20499;-62
2022/02/23 11:20:36;;;;;;;3.63;1.00;;;;;;;;;;5042973;28;20027;-62
2022/02/23 11:23:03;;;;;;;7.80;1.63;;;;;;;;;;5053662;28;20092;-62
2022/02/23 11:25:42;;;;;;;3.85;1.00;;;;;;;;;;5053832;28;20545;-62
2022/02/23 11:28:11;;;;;;;4.45;1.10;;;;;;;;;;5053940;28;20079;-62
2022/02/23 11:30:37;;;;;;;4.38;0.95;;;;;;;;;;5053816;28;20096;-62
2022/02/23 11:33:04;;;;;;;4.70;1.30;;;;;;;;;;5054498;28;20025;-61
2022/02/23 11:35:40;;;;;;;9.35;1.30;;;;;;;;;;5054360;28;20017;-62
2022/02/23 11:38:07;;;;;;;5.95;1.20;;;;;;;;;;5053486;28;20033;-61
2022/02/23 11:40:48;;;;;;;5.60;1.23;;;;;;;;;;5053723;28;20417;-62
2022/02/23 11:43:28;;;;;;;3.90;1.17;;;;;;;;;;5053229;28;20020;-62
2022/02/23 11:45:59;;;;;;;4.45;1.10;;;;;;;;;;5053933;28;20029;-62
2022/02/23 11:48:25;;;;;;;8.63;1.33;;;;;;;;;;5053920;28;20018;-62
2022/02/23 11:51:02;;;;;;;6.30;1.55;;;;;;;;;;5053840;28;20053;-62
2022/02/23 11:53:38;;;;;;;2.85;0.90;;;;;;;;;;5053767;28;20103;-62
2022/02/23 11:56:11;;;;;;;3.47;0.80;;;;;;;;;;5053758;28;20237;-63
2022/02/23 11:58:48;;;;;;;5.20;1.15;;;;;;;;;;5053893;28;20039;-62
2022/02/23 12:01:14;;;;;;;6.55;1.08;;;;;;;;;;5035635;28;20163;-62
2022/02/23 12:03:43;;;;;;;5.43;1.30;;;;;;;;;;5053432;28;20037;-62
2022/02/23 12:06:09;;;;;;;2.72;0.80;;;;;;;;;;5053608;28;20024;-62
2022/02/23 12:08:37;;;;;;;4.68;0.80;;;;;;;;;;5053598;28;20032;-62
2022/02/23 12:11:10;;;;;;;4.28;1.00;;;;;;;;;;5053560;28;20024;-62
2022/02/23 12:13:36;;;;;;;4.88;1.08;;;;;;;;;;5053510;28;20067;-62
2022/02/23 12:16:23;;;;;;;3.72;1.08;;;;;;;;;;5053097;28;20060;-62
2022/02/23 12:18:50;;;;;;;3.13;0.80;;;;;;;;;;5035237;28;20114;-62
2022/02/23 12:21:16;;;;;;;1.90;0.70;;;;;;;;;;5053195;28;20032;-62
2022/02/23 12:23:44;;;;;;;3.00;0.88;;;;;;;;;;5053260;28;20035;-62
2022/02/23 12:26:18;;;;;;;3.00;1.08;;;;;;;;;;5053762;28;20025;-62
2022/02/23 12:28:48;;;;;;;4.65;0.73;;;;;;;;;;5035299;28;20017;-62
2022/02/23 12:31:25;;;;;;;2.20;0.68;;;;;;;;;;5053176;28;20043;-62
2022/02/23 12:33:52;;;;;;;3.45;0.90;;;;;;;;;;5053083;28;20472;-62
2022/02/23 12:36:27;;;;;;;5.93;1.10;;;;;;;;;;5053047;28;20472;-63
2022/02/23 12:38:55;;;;;;;2.85;0.75;;;;;;;;;;5053113;28;20075;-63
2022/02/23 12:41:40;;;;;;;2.38;0.60;;;;;;;;;;5035238;28;20028;-63
2022/02/23 12:44:08;;;;;;;4.50;1.00;;;;;;;;;;5052910;28;20029;-63
2022/02/23 12:46:36;;;;;;;3.28;0.93;;;;;;;;;;5053169;28;20063;-63
2022/02/23 12:49:02;;;;;;;2.58;0.77;;;;;;;;;;5052823;28;20048;-63
2022/02/23 12:51:32;;;;;;;2.88;0.70;;;;;;;;;;5052311;28;20021;-64
2022/02/23 12:54:03;;;;;;;1.67;0.80;;;;;;;;;;5052804;28;20499;-63
2022/02/23 12:56:30;;;;;;;3.72;0.98;;;;;;;;;;5052552;28;20025;-63
2022/02/23 12:58:58;;;;;;;3.28;0.90;;;;;;;;;;5052586;28;20017;-62
2022/02/23 13:01:29;;;;;;;4.00;0.98;;;;;;;;;;5052516;28;20063;-62
2022/02/23 13:03:57;;;;;;;2.88;0.80;;;;;;;;;;5052662;28;20040;-62
2022/02/23 13:06:30;;;;;;;4.13;1.00;;;;;;;;;;5052378;28;20036;-62
2022/02/23 13:09:00;;;;;;;2.58;0.75;;;;;;;;;;5052423;28;20387;-62
2022/02/23 13:11:32;;;;;;;3.15;0.88;;;;;;;;;;5052557;28;20391;-62
2022/02/23 13:14:06;;;;;;;6.07;1.20;;;;;;;;;;5052464;28;20025;-61
2022/02/23 13:16:32;;;;;;;6.15;0.90;;;;;;;;;;5052431;28;20051;-61
2022/02/23 13:18:59;;;;;;;3.25;0.70;;;;;;;;;;5052289;28;20499;-62
2022/02/23 13:21:36;;;;;;;2.70;0.75;;;;;;;;;;5035252;28;20511;-62
2022/02/23 13:24:02;;;;;;;3.33;1.02;;;;;;;;;;5014534;28;20045;-61
2022/02/23 13:26:28;;;;;;;2.85;1.00;;;;;;;;;;5032230;28;20028;-62
2022/02/23 13:28:58;;;;;;;1.85;0.60;;;;;;;;;;5032195;28;20025;-62
2022/02/23 13:31:34;;;;;;;4.20;1.10;;;;;;;;;;5032146;28;20021;-61
2022/02/23 13:34:13;;;;;;;4.40;1.10;;;;;;;;;;5014549;28;20554;-62
2022/02/23 13:36:41;;;;;;;2.70;0.90;;;;;;;;;;5032295;28;20029;-62
2022/02/23 13:39:19;;;;;;;3.05;0.90;;;;;;;;;;5032241;28;20022;-62
2022/02/23 13:41:53;;;;;;;3.03;0.70;;;;;;;;;;5032012;28;20087;-62
2022/02/23 13:44:20;;;;;;;2.97;0.80;;;;;;;;;;5014211;28;20531;-62
2022/02/23 13:46:46;;;;;;;3.15;0.75;;;;;;;;;;5032053;28;20032;-62
2022/02/23 13:49:12;;;;;;;4.03;1.05;;;;;;;;;;5032164;28;20022;-62
2022/02/23 13:51:43;;;;;;;3.58;1.00;;;;;;;;;;5032154;28;20372;-62
2022/02/23 13:54:09;;;;;;;2.58;0.95;;;;;;;;;;5031856;28;20010;-62
2022/02/23 13:56:35;;;;;;;3.63;1.00;;;;;;;;;;5031866;28;20034;-62
2022/02/23 13:59:02;;;;;;;2.05;0.68;;;;;;;;;;5032015;28;20053;-63
2022/02/23 14:01:28;;;;;;;2.35;0.77;;;;;;;;;;5031846;28;20021;-62
2022/02/23 14:03:56;;;;;;;3.10;1.05;;;;;;;;;;5035897;28;20034;-62
2022/02/23 14:06:25;;;;;;;3.35;0.90;;;;;;;;;;5036054;28;20024;-62
2022/02/23 14:08:56;;;;;;;1.63;0.50;;;;;;;;;;5035876;28;20075;-62
2022/02/23 14:11:27;;;;;;;2.78;1.00;;;;;;;;;;5035828;28;20469;-62
2022/02/23 14:13:54;;;;;;;2.63;0.73;;;;;;;;;;5035848;28;20029;-61
2022/02/23 14:16:41;;;;;;;3.50;0.90;;;;;;;;;;5035514;28;20061;-61
2022/02/23 14:19:15;;;;;;;3.85;0.63;;;;;;;;;;5035596;28;20079;-62
2022/02/23 14:21:42;;;;;;;3.03;0.82;;;;;;;;;;5035637;28;20040;-62
2022/02/23 14:24:09;;;;;;;4.28;1.08;;;;;;;;;;5035024;28;20484;-62
2022/02/23 14:26:35;;;;;;;3.15;0.70;;;;;;;;;;5050706;28;20082;-62
2022/02/23 14:29:04;;;;;;;6.10;1.02;;;;;;;;;;5054384;28;20399;-61
2022/02/23 14:31:30;;;;;;;6.07;0.95;;;;;;;;;;5052861;28;20028;-61
2022/02/23 14:34:16;;;;;;;3.97;1.10;;;;;;;;;;5049360;28;20032;-62
2022/02/23 14:36:43;;;;;;;3.65;1.25;;;;;;;;;;5055177;28;20025;-62
2022/02/23 14:39:09;;;;;;;2.08;0.80;;;;;;;;;;5055174;28;20075;-61
2022/02/23 14:41:35;;;;;;;4.45;0.68;;;;;;;;;;5038253;28;20060;-62
2022/02/23 14:44:01;;;;;;;3.17;0.65;;;;;;;;;;5053336;28;20033;-62
2022/02/23 14:46:28;;;;;;;6.25;1.20;;;;;;;;;;5055056;28;20614;-62
2022/02/23 14:48:54;;;;;;;4.15;0.95;;;;;;;;;;5054745;28;20025;-62